sensor_id;sensor_type;location;lat;lon;timestamp;pressure;altitude;pressure_sealevel;temperature;humidity
36600;BME280;35385;55.668;37.508;2023-02-07T00:00:54;101026.09;;;-4.96;100.00
36600;BME280;35385;55.668;37.508;2023-02-07T00:01:55;101026.97;;;-5.06;100.00
36600;BME280;35385;55.668;37.508;2023-02-07T00:02:55;101022.59;;;-5.03;100.00
36600;BME280;35385;55.668;37.508;2023-02-07T00:03:57;101033.91;;;-5.07;100.00
36600;BME280;35385;55.668;37.508;2023-02-07T00:05:01;101009.59;;;-5.06;100.00
36600;BME280;35385;55.668;37.508;2023-02-07T00:06:13;101019.16;;;-4.76;100.00
36600;BME280;35385;55.668;37.508;2023-02-07T00:07:14;101020.94;;;-4.76;100.00
36600;BME280;35385;55.668;37.508;2023-02-07T00:08:15;101008.72;;;-4.88;100.00
36600;BME280;35385;55.668;37.508;2023-02-07T00:09:16;100952.19;;;-5.38;100.00
36600;BME280;35385;55.668;37.508;2023-02-07T00:10:16;101001.75;;;-5.19;100.00
36600;BME280;35385;55.668;37.508;2023-02-07T00:11:19;100969.50;;;-5.47;100.00
36600;BME280;35385;55.668;37.508;2023-02-07T00:12:19;101018.25;;;-5.10;100.00
36600;BME280;35385;55.668;37.508;2023-02-07T00:13:20;100966.88;;;-5.58;100.00
36600;BME280;35385;55.668;37.508;2023-02-07T00:14:21;101012.97;;;-5.37;100.00
36600;BME280;35385;55.668;37.508;2023-02-07T00:15:21;101024.31;;;-5.15;100.00
36600;BME280;35385;55.668;37.508;2023-02-07T00:16:22;101032.19;;;-4.94;100.00
36600;BME280;35385;55.668;37.508;2023-02-07T00:17:24;100978.28;;;-5.12;100.00
36600;BME280;35385;55.668;37.508;2023-02-07T00:18:25;101020.88;;;-5.05;100.00
36600;BME280;35385;55.668;37.508;2023-02-07T00:19:26;100990.38;;;-5.43;100.00
36600;BME280;35385;55.668;37.508;2023-02-07T00:20:26;101036.47;;;-5.20;100.00
36600;BME280;35385;55.668;37.508;2023-02-07T00:21:27;101036.47;;;-5.17;100.00
36600;BME280;35385;55.668;37.508;2023-02-07T00:22:28;101027.84;;;-5.06;100.00
36600;BME280;35385;55.668;37.508;2023-02-07T00:23:30;101031.31;;;-4.96;100.00
36600;BME280;35385;55.668;37.508;2023-02-07T00:24:30;101000.00;;;-5.20;100.00
36600;BME280;35385;55.668;37.508;2023-02-07T00:25:31;101033.03;;;-5.00;100.00
36600;BME280;35385;55.668;37.508;2023-02-07T00:26:31;100968.72;;;-5.26;100.00
36600;BME280;35385;55.668;37.508;2023-02-07T00:27:32;101036.56;;;-4.79;100.00
36600;BME280;35385;55.668;37.508;2023-02-07T00:28:33;101040.91;;;-4.68;100.00
36600;BME280;35385;55.668;37.508;2023-02-07T00:29:33;100968.75;;;-5.02;100.00
36600;BME280;35385;55.668;37.508;2023-02-07T00:30:34;101028.75;;;-4.70;100.00
36600;BME280;35385;55.668;37.508;2023-02-07T00:31:34;101039.19;;;-4.78;100.00
36600;BME280;35385;55.668;37.508;2023-02-07T00:32:38;100986.94;;;-5.26;100.00
36600;BME280;35385;55.668;37.508;2023-02-07T00:33:42;101043.47;;;-5.01;100.00
36600;BME280;35385;55.668;37.508;2023-02-07T00:34:45;101037.41;;;-4.91;100.00
36600;BME280;35385;55.668;37.508;2023-02-07T00:35:46;101035.69;;;-4.74;100.00
36600;BME280;35385;55.668;37.508;2023-02-07T00:36:46;101033.09;;;-4.55;100.00
36600;BME280;35385;55.668;37.508;2023-02-07T00:37:47;101012.22;;;-4.69;100.00
36600;BME280;35385;55.668;37.508;2023-02-07T00:38:47;101020.06;;;-4.65;100.00
36600;BME280;35385;55.668;37.508;2023-02-07T00:39:48;100979.19;;;-4.85;100.00
36600;BME280;35385;55.668;37.508;2023-02-07T00:40:49;100979.22;;;-4.78;100.00
36600;BME280;35385;55.668;37.508;2023-02-07T00:41:49;101023.53;;;-4.56;100.00
36600;BME280;35385;55.668;37.508;2023-02-07T00:42:50;100988.75;;;-4.95;100.00
36600;BME280;35385;55.668;37.508;2023-02-07T00:43:50;101010.50;;;-4.76;100.00
36600;BME280;35385;55.668;37.508;2023-02-07T00:44:53;101040.94;;;-4.49;100.00
36600;BME280;35385;55.668;37.508;2023-02-07T00:45:54;101023.53;;;-4.52;100.00
36600;BME280;35385;55.668;37.508;2023-02-07T00:46:54;101042.69;;;-4.48;100.00
36600;BME280;35385;55.668;37.508;2023-02-07T00:47:57;101038.31;;;-4.62;100.00
36600;BME280;35385;55.668;37.508;2023-02-07T00:48:58;101028.72;;;-4.91;100.00
36600;BME280;35385;55.668;37.508;2023-02-07T00:49:58;101045.22;;;-4.85;100.00
36600;BME280;35385;55.668;37.508;2023-02-07T00:50:59;101050.47;;;-4.73;100.00
36600;BME280;35385;55.668;37.508;2023-02-07T00:52:00;101047.88;;;-4.56;100.00
36600;BME280;35385;55.668;37.508;2023-02-07T00:53:03;101036.59;;;-4.50;100.00
36600;BME280;35385;55.668;37.508;2023-02-07T00:54:04;101049.63;;;-4.52;100.00
36600;BME280;35385;55.668;37.508;2023-02-07T00:55:05;101049.66;;;-4.47;100.00
36600;BME280;35385;55.668;37.508;2023-02-07T00:56:07;101047.00;;;-4.32;100.00
36600;BME280;35385;55.668;37.508;2023-02-07T00:57:07;101044.41;;;-4.35;100.00
36600;BME280;35385;55.668;37.508;2023-02-07T00:58:08;101044.41;;;-4.50;100.00
36600;BME280;35385;55.668;37.508;2023-02-07T00:59:08;101051.38;;;-4.51;100.00
36600;BME280;35385;55.668;37.508;2023-02-07T01:00:09;101043.53;;;-4.55;100.00
36600;BME280;35385;55.668;37.508;2023-02-07T01:01:10;101051.38;;;-4.65;100.00
36600;BME280;35385;55.668;37.508;2023-02-07T01:02:11;101053.94;;;-4.84;100.00
36600;BME280;35385;55.668;37.508;2023-02-07T01:03:11;101055.63;;;-4.97;100.00
36600;BME280;35385;55.668;37.508;2023-02-07T01:04:12;101054.78;;;-4.87;100.00
36600;BME280;35385;55.668;37.508;2023-02-07T01:05:13;101060.81;;;-5.03;100.00
36600;BME280;35385;55.668;37.508;2023-02-07T01:06:13;100996.44;;;-5.44;100.00
36600;BME280;35385;55.668;37.508;2023-02-07T01:07:14;101057.31;;;-5.17;100.00
36600;BME280;35385;55.668;37.508;2023-02-07T01:08:14;101003.38;;;-5.52;100.00
36600;BME280;35385;55.668;37.508;2023-02-07T01:09:15;100995.53;;;-5.56;100.00
36600;BME280;35385;55.668;37.508;2023-02-07T01:10:16;101067.75;;;-5.20;100.00
36600;BME280;35385;55.668;37.508;2023-02-07T01:11:20;101052.16;;;-5.08;100.00
36600;BME280;35385;55.668;37.508;2023-02-07T01:12:20;101003.44;;;-5.18;100.00
36600;BME280;35385;55.668;37.508;2023-02-07T01:13:21;101015.66;;;-4.99;100.00
36600;BME280;35385;55.668;37.508;2023-02-07T01:14:21;101066.13;;;-4.67;100.00
36600;BME280;35385;55.668;37.508;2023-02-07T01:15:22;101066.13;;;-4.67;100.00
36600;BME280;35385;55.668;37.508;2023-02-07T01:16:25;101069.56;;;-4.86;100.00
36600;BME280;35385;55.668;37.508;2023-02-07T01:17:26;101067.81;;;-4.87;100.00
36600;BME280;35385;55.668;37.508;2023-02-07T01:18:27;101050.38;;;-5.21;100.00
36600;BME280;35385;55.668;37.508;2023-02-07T01:19:28;101066.03;;;-5.11;100.00
36600;BME280;35385;55.668;37.508;2023-02-07T01:20:28;101056.44;;;-5.22;100.00
36600;BME280;35385;55.668;37.508;2023-02-07T01:21:29;101065.16;;;-5.13;100.00
36600;BME280;35385;55.668;37.508;2023-02-07T01:22:29;101013.91;;;-5.21;100.00
36600;BME280;35385;55.668;37.508;2023-02-07T01:23:30;101060.00;;;-4.88;100.00
36600;BME280;35385;55.668;37.508;2023-02-07T01:24:31;101020.00;;;-5.04;100.00
36600;BME280;35385;55.668;37.508;2023-02-07T01:25:32;101060.03;;;-4.78;100.00
36600;BME280;35385;55.668;37.508;2023-02-07T01:26:33;101046.97;;;-4.91;100.00
36600;BME280;35385;55.668;37.508;2023-02-07T01:27:34;101064.38;;;-4.74;100.00
36600;BME280;35385;55.668;37.508;2023-02-07T01:28:35;101046.97;;;-4.87;100.00
36600;BME280;35385;55.668;37.508;2023-02-07T01:29:35;100974.75;;;-5.43;100.00
36600;BME280;35385;55.668;37.508;2023-02-07T01:30:38;101064.31;;;-4.98;100.00
36600;BME280;35385;55.668;37.508;2023-02-07T01:31:40;101063.50;;;-4.91;100.00
36600;BME280;35385;55.668;37.508;2023-02-07T01:32:40;101066.09;;;-4.94;100.00
36600;BME280;35385;55.668;37.508;2023-02-07T01:33:41;101074.78;;;-4.93;100.00
36600;BME280;35385;55.668;37.508;2023-02-07T01:34:41;101066.94;;;-4.90;100.00
36600;BME280;35385;55.668;37.508;2023-02-07T01:35:42;101066.91;;;-5.01;100.00
36600;BME280;35385;55.668;37.508;2023-02-07T01:36:45;101085.13;;;-5.19;100.00
36600;BME280;35385;55.668;37.508;2023-02-07T01:37:46;101069.47;;;-5.22;100.00
36600;BME280;35385;55.668;37.508;2023-02-07T01:38:46;101066.91;;;-5.04;100.00
36600;BME280;35385;55.668;37.508;2023-02-07T01:39:47;101062.59;;;-4.87;100.00
36600;BME280;35385;55.668;37.508;2023-02-07T01:40:47;101049.56;;;-4.93;100.00
36600;BME280;35385;55.668;37.508;2023-02-07T01:41:48;101060.88;;;-4.85;100.00
36600;BME280;35385;55.668;37.508;2023-02-07T01:42:49;100965.16;;;-5.47;100.00
36600;BME280;35385;55.668;37.508;2023-02-07T01:44:05;101066.94;;;-4.89;100.00
36600;BME280;35385;55.668;37.508;2023-02-07T01:46:22;101070.34;;;-5.17;100.00
36600;BME280;35385;55.668;37.508;2023-02-07T01:47:23;101053.88;;;-5.01;100.00
36600;BME280;35385;55.668;37.508;2023-02-07T01:48:33;101073.03;;;-4.87;100.00
36600;BME280;35385;55.668;37.508;2023-02-07T01:49:37;101063.44;;;-5.09;100.00
36600;BME280;35385;55.668;37.508;2023-02-07T01:50:42;101048.66;;;-5.04;100.00
36600;BME280;35385;55.668;37.508;2023-02-07T01:51:48;101074.81;;;-4.80;100.00
36600;BME280;35385;55.668;37.508;2023-02-07T01:52:51;101095.66;;;-4.71;100.00
36600;BME280;35385;55.668;37.508;2023-02-07T01:53:56;101085.25;;;-4.77;100.00
36600;BME280;35385;55.668;37.508;2023-02-07T01:55:04;101061.72;;;-4.95;100.00
36600;BME280;35385;55.668;37.508;2023-02-07T01:56:08;101085.22;;;-4.92;100.00
36600;BME280;35385;55.668;37.508;2023-02-07T01:57:13;101091.22;;;-5.02;100.00
36600;BME280;35385;55.668;37.508;2023-02-07T01:58:15;101091.22;;;-5.11;100.00
36600;BME280;35385;55.668;37.508;2023-02-07T01:59:19;101092.94;;;-5.12;100.00
36600;BME280;35385;55.668;37.508;2023-02-07T02:00:20;101098.16;;;-5.10;100.00
36600;BME280;35385;55.668;37.508;2023-02-07T02:01:24;101099.97;;;-4.94;100.00
36600;BME280;35385;55.668;37.508;2023-02-07T02:02:26;101094.78;;;-4.82;100.00
36600;BME280;35385;55.668;37.508;2023-02-07T02:03:27;101101.75;;;-4.76;100.00
36600;BME280;35385;55.668;37.508;2023-02-07T02:04:28;101099.16;;;-4.72;100.00
36600;BME280;35385;55.668;37.508;2023-02-07T02:05:30;100980.78;;;-5.47;100.00
36600;BME280;35385;55.668;37.508;2023-02-07T02:06:32;101107.84;;;-4.70;100.00
36600;BME280;35385;55.668;37.508;2023-02-07T02:07:33;101104.31;;;-4.93;100.00
36600;BME280;35385;55.668;37.508;2023-02-07T02:08:37;101099.00;;;-5.17;100.00
36600;BME280;35385;55.668;37.508;2023-02-07T02:09:38;101095.47;;;-5.31;100.00
36600;BME280;35385;55.668;37.508;2023-02-07T02:10:47;101106.81;;;-5.22;100.00
36600;BME280;35385;55.668;37.508;2023-02-07T02:13:38;101059.00;;;-5.28;100.00
36600;BME280;35385;55.668;37.508;2023-02-07T02:21:55;101100.91;;;-4.66;100.00
36600;BME280;35385;55.668;37.508;2023-02-07T02:35:07;101127.03;;;-4.16;100.00
36600;BME280;35385;55.668;37.508;2023-02-07T02:37:51;101130.53;;;-4.05;100.00
36600;BME280;35385;55.668;37.508;2023-02-07T02:39:34;101126.19;;;-3.98;100.00
36600;BME280;35385;55.668;37.508;2023-02-07T02:40:47;101131.38;;;-4.42;100.00
36600;BME280;35385;55.668;37.508;2023-02-07T02:43:06;101126.91;;;-4.86;100.00
36600;BME280;35385;55.668;37.508;2023-02-07T02:44:37;101128.59;;;-5.00;100.00
36600;BME280;35385;55.668;37.508;2023-02-07T02:45:38;101131.22;;;-5.00;100.00
36600;BME280;35385;55.668;37.508;2023-02-07T02:46:40;101117.31;;;-4.99;100.00
36600;BME280;35385;55.668;37.508;2023-02-07T02:47:44;101133.88;;;-4.92;100.00
36600;BME280;35385;55.668;37.508;2023-02-07T02:48:46;101140.81;;;-4.94;100.00
36600;BME280;35385;55.668;37.508;2023-02-07T02:49:47;101138.22;;;-4.84;100.00
36600;BME280;35385;55.668;37.508;2023-02-07T02:50:48;101140.00;;;-4.71;100.00
36600;BME280;35385;55.668;37.508;2023-02-07T02:51:50;101120.91;;;-4.57;100.00
36600;BME280;35385;55.668;37.508;2023-02-07T02:52:51;101133.13;;;-4.47;100.00
36600;BME280;35385;55.668;37.508;2023-02-07T02:53:57;101140.91;;;-4.56;100.00
36600;BME280;35385;55.668;37.508;2023-02-07T02:54:58;101137.41;;;-4.58;100.00
36600;BME280;35385;55.668;37.508;2023-02-07T02:57:42;101133.09;;;-4.53;100.00
36600;BME280;35385;55.668;37.508;2023-02-07T03:07:48;101147.84;;;-4.68;100.00
36600;BME280;35385;55.668;37.508;2023-02-07T03:09:17;101161.56;;;-5.14;100.00
36600;BME280;35385;55.668;37.508;2023-02-07T03:10:31;101151.13;;;-5.20;100.00
36600;BME280;35385;55.668;37.508;2023-02-07T03:11:43;101158.06;;;-5.19;100.00
36600;BME280;35385;55.668;37.508;2023-02-07T03:14:21;101158.13;;;-5.07;100.00
36600;BME280;35385;55.668;37.508;2023-02-07T03:16:08;101146.94;;;-4.77;100.00
36600;BME280;35385;55.668;37.508;2023-02-07T03:17:21;101156.56;;;-4.50;100.00
36600;BME280;35385;55.668;37.508;2023-02-07T03:21:23;101125.28;;;-4.50;100.00
36600;BME280;35385;55.668;37.508;2023-02-07T03:22:27;101129.63;;;-4.45;100.00
36600;BME280;35385;55.668;37.508;2023-02-07T03:23:29;101124.41;;;-4.49;100.00
36600;BME280;35385;55.668;37.508;2023-02-07T03:24:32;101180.97;;;-4.24;100.00
36600;BME280;35385;55.668;37.508;2023-02-07T03:25:34;101181.78;;;-4.43;100.00
36600;BME280;35385;55.668;37.508;2023-02-07T03:26:37;101128.72;;;-4.65;100.00
36600;BME280;35385;55.668;37.508;2023-02-07T03:27:39;101176.59;;;-4.37;100.00
36600;BME280;35385;55.668;37.508;2023-02-07T03:28:43;101186.19;;;-4.27;100.00
36600;BME280;35385;55.668;37.508;2023-02-07T03:29:46;101201.84;;;-4.27;100.00
36600;BME280;35385;55.668;37.508;2023-02-07T03:30:50;101138.31;;;-4.63;100.00
36600;BME280;35385;55.668;37.508;2023-02-07T03:31:55;101142.66;;;-4.52;100.00
36600;BME280;35385;55.668;37.508;2023-02-07T03:33:01;101199.22;;;-4.18;100.00
36600;BME280;35385;55.668;37.508;2023-02-07T03:34:10;101203.59;;;-4.23;100.00
36600;BME280;35385;55.668;37.508;2023-02-07T03:36:27;101208.81;;;-4.17;100.00
36600;BME280;35385;55.668;37.508;2023-02-07T03:37:40;101147.81;;;-4.72;100.00
36600;BME280;35385;55.668;37.508;2023-02-07T03:38:41;101207.88;;;-4.43;100.00
36600;BME280;35385;55.668;37.508;2023-02-07T03:39:42;101198.34;;;-4.35;100.00
36600;BME280;35385;55.668;37.508;2023-02-07T03:40:45;101198.31;;;-4.43;100.00
36600;BME280;35385;55.668;37.508;2023-02-07T03:41:54;101220.06;;;-4.48;100.00
36600;BME280;35385;55.668;37.508;2023-02-07T03:43:29;101219.13;;;-4.59;100.00
36600;BME280;35385;55.668;37.508;2023-02-07T03:44:32;101221.69;;;-4.73;100.00
36600;BME280;35385;55.668;37.508;2023-02-07T03:45:34;101215.66;;;-4.63;100.00
36600;BME280;35385;55.668;37.508;2023-02-07T03:46:36;101222.69;;;-4.39;100.00
36600;BME280;35385;55.668;37.508;2023-02-07T03:47:36;101223.56;;;-4.39;100.00
36600;BME280;35385;55.668;37.508;2023-02-07T03:48:37;101222.69;;;-4.36;100.00
36600;BME280;35385;55.668;37.508;2023-02-07T03:49:37;101181.75;;;-4.65;100.00
36600;BME280;35385;55.668;37.508;2023-02-07T03:50:38;101189.44;;;-4.90;100.00
36600;BME280;35385;55.668;37.508;2023-02-07T03:51:39;101249.50;;;-4.77;100.00
36600;BME280;35385;55.668;37.508;2023-02-07T03:52:39;101226.84;;;-4.91;100.00
36600;BME280;35385;55.668;37.508;2023-02-07T03:53:40;101222.50;;;-4.85;100.00
36600;BME280;35385;55.668;37.508;2023-02-07T03:54:40;101236.53;;;-4.65;100.00
36600;BME280;35385;55.668;37.508;2023-02-07T03:55:41;101243.47;;;-4.64;100.00
36600;BME280;35385;55.668;37.508;2023-02-07T03:56:41;101240.91;;;-4.53;100.00
36600;BME280;35385;55.668;37.508;2023-02-07T03:57:42;101238.31;;;-4.51;100.00
36600;BME280;35385;55.668;37.508;2023-02-07T03:58:42;101240.09;;;-4.35;100.00
36600;BME280;35385;55.668;37.508;2023-02-07T03:59:43;101240.09;;;-4.29;100.00
36600;BME280;35385;55.668;37.508;2023-02-07T04:00:43;101196.53;;;-4.57;100.00
36600;BME280;35385;55.668;37.508;2023-02-07T04:01:44;101246.13;;;-4.54;100.00
36600;BME280;35385;55.668;37.508;2023-02-07T04:02:45;101168.41;;;-5.31;100.00
36600;BME280;35385;55.668;37.508;2023-02-07T04:03:45;101255.47;;;-4.99;100.00
36600;BME280;35385;55.668;37.508;2023-02-07T04:04:46;101237.06;;;-5.23;100.00
36600;BME280;35385;55.668;37.508;2023-02-07T04:05:47;101100.22;;;-6.11;100.00
36600;BME280;35385;55.668;37.508;2023-02-07T04:06:48;101255.31;;;-5.23;100.00
36600;BME280;35385;55.668;37.508;2023-02-07T04:07:49;101252.66;;;-5.28;100.00
36600;BME280;35385;55.668;37.508;2023-02-07T04:08:49;101254.47;;;-5.18;100.00
36600;BME280;35385;55.668;37.508;2023-02-07T04:09:50;101237.16;;;-5.10;100.00
36600;BME280;35385;55.668;37.508;2023-02-07T04:10:58;101254.69;;;-4.83;100.00
36600;BME280;35385;55.668;37.508;2023-02-07T04:11:59;101214.53;;;-5.15;100.00
36600;BME280;35385;55.668;37.508;2023-02-07T04:12:59;101252.97;;;-4.79;100.00
36600;BME280;35385;55.668;37.508;2023-02-07T04:14:00;101255.59;;;-4.76;100.00
36600;BME280;35385;55.668;37.508;2023-02-07T04:15:02;101253.81;;;-4.76;100.00
36600;BME280;35385;55.668;37.508;2023-02-07T04:16:05;101260.03;;;-4.54;100.00
36600;BME280;35385;55.668;37.508;2023-02-07T04:17:06;101205.97;;;-4.88;100.00
36600;BME280;35385;55.668;37.508;2023-02-07T04:18:06;101267.88;;;-4.52;100.00
36600;BME280;35385;55.668;37.508;2023-02-07T04:19:07;101264.41;;;-4.42;100.00
36600;BME280;35385;55.668;37.508;2023-02-07T04:20:08;101258.31;;;-4.43;100.00
36600;BME280;35385;55.668;37.508;2023-02-07T04:21:09;101260.09;;;-4.36;100.00
36600;BME280;35385;55.668;37.508;2023-02-07T04:22:09;101259.22;;;-4.32;100.00
36600;BME280;35385;55.668;37.508;2023-02-07T04:23:10;101271.47;;;-4.20;100.00
36600;BME280;35385;55.668;37.508;2023-02-07T04:24:11;101213.94;;;-4.53;100.00
36600;BME280;35385;55.668;37.508;2023-02-07T04:25:14;101273.19;;;-4.25;100.00
36600;BME280;35385;55.668;37.508;2023-02-07T04:26:14;101285.34;;;-4.27;100.00
36600;BME280;35385;55.668;37.508;2023-02-07T04:27:15;101277.50;;;-4.30;100.00
36600;BME280;35385;55.668;37.508;2023-02-07T04:28:16;101280.13;;;-4.24;100.00
36600;BME280;35385;55.668;37.508;2023-02-07T04:29:16;101224.34;;;-4.58;100.00
36600;BME280;35385;55.668;37.508;2023-02-07T04:30:17;101233.06;;;-4.54;100.00
36600;BME280;35385;55.668;37.508;2023-02-07T04:31:20;101288.84;;;-4.16;100.00
36600;BME280;35385;55.668;37.508;2023-02-07T04:32:21;101240.06;;;-4.41;100.00
36600;BME280;35385;55.668;37.508;2023-02-07T04:33:21;101229.63;;;-4.47;100.00
36600;BME280;35385;55.668;37.508;2023-02-07T04:34:22;101275.81;;;-4.11;100.00
36600;BME280;35385;55.668;37.508;2023-02-07T04:35:23;101293.25;;;-4.06;100.00
36600;BME280;35385;55.668;37.508;2023-02-07T04:36:23;101290.56;;;-4.18;100.00
36600;BME280;35385;55.668;37.508;2023-02-07T04:37:24;101287.91;;;-4.38;100.00
36600;BME280;35385;55.668;37.508;2023-02-07T04:38:27;101298.25;;;-4.59;100.00
36600;BME280;35385;55.668;37.508;2023-02-07T04:39:28;101299.06;;;-4.71;100.00
36600;BME280;35385;55.668;37.508;2023-02-07T04:40:29;101308.66;;;-4.60;100.00
36600;BME280;35385;55.668;37.508;2023-02-07T04:41:29;101288.75;;;-4.49;100.00
36600;BME280;35385;55.668;37.508;2023-02-07T04:42:30;101296.63;;;-4.30;100.00
36600;BME280;35385;55.668;37.508;2023-02-07T04:43:32;101299.25;;;-4.28;100.00
36600;BME280;35385;55.668;37.508;2023-02-07T04:44:33;101298.41;;;-4.24;100.00
36600;BME280;35385;55.668;37.508;2023-02-07T04:45:34;101306.25;;;-4.15;100.00
36600;BME280;35385;55.668;37.508;2023-02-07T04:46:34;101312.38;;;-4.08;100.00
36600;BME280;35385;55.668;37.508;2023-02-07T04:47:35;101297.59;;;-4.08;100.00
36600;BME280;35385;55.668;37.508;2023-02-07T04:48:35;101262.72;;;-4.30;100.00
36600;BME280;35385;55.668;37.508;2023-02-07T04:49:36;101310.66;;;-3.99;100.00
36600;BME280;35385;55.668;37.508;2023-02-07T04:50:37;101301.94;;;-4.02;100.00
36600;BME280;35385;55.668;37.508;2023-02-07T04:51:38;101255.81;;;-4.20;100.00
36600;BME280;35385;55.668;37.508;2023-02-07T04:52:38;101320.25;;;-3.98;100.00
36600;BME280;35385;55.668;37.508;2023-02-07T04:53:40;101290.59;;;-4.15;100.00
36600;BME280;35385;55.668;37.508;2023-02-07T04:54:41;101316.75;;;-4.07;100.00
36600;BME280;35385;55.668;37.508;2023-02-07T04:55:41;101323.69;;;-4.00;100.00
36600;BME280;35385;55.668;37.508;2023-02-07T04:56:42;101314.13;;;-4.07;100.00
36600;BME280;35385;55.668;37.508;2023-02-07T04:57:42;101304.44;;;-4.31;100.00
36600;BME280;35385;55.668;37.508;2023-02-07T04:58:43;101321.00;;;-4.35;100.00
36600;BME280;35385;55.668;37.508;2023-02-07T04:59:44;101322.75;;;-4.27;100.00
36600;BME280;35385;55.668;37.508;2023-02-07T05:00:44;101321.91;;;-4.18;100.00
36600;BME280;35385;55.668;37.508;2023-02-07T05:01:45;101315.84;;;-4.18;100.00
36600;BME280;35385;55.668;37.508;2023-02-07T05:02:46;101314.97;;;-4.10;100.00
36600;BME280;35385;55.668;37.508;2023-02-07T05:03:46;101325.41;;;-4.13;100.00
36600;BME280;35385;55.668;37.508;2023-02-07T05:04:47;101323.56;;;-4.41;100.00
36600;BME280;35385;55.668;37.508;2023-02-07T05:05:48;101314.84;;;-4.42;100.00
36600;BME280;35385;55.668;37.508;2023-02-07T05:06:49;101332.28;;;-4.36;100.00
36600;BME280;35385;55.668;37.508;2023-02-07T05:07:50;101281.75;;;-4.63;100.00
36600;BME280;35385;55.668;37.508;2023-02-07T05:08:53;101324.50;;;-4.25;100.00
36600;BME280;35385;55.668;37.508;2023-02-07T05:09:54;101323.66;;;-4.17;100.00
36600;BME280;35385;55.668;37.508;2023-02-07T05:10:54;101345.44;;;-4.01;100.00
36600;BME280;35385;55.668;37.508;2023-02-07T05:11:55;101337.63;;;-4.06;100.00
36600;BME280;35385;55.668;37.508;2023-02-07T05:12:58;101351.53;;;-4.04;100.00
36600;BME280;35385;55.668;37.508;2023-02-07T05:13:58;101360.25;;;-4.05;100.00
36600;BME280;35385;55.668;37.508;2023-02-07T05:14:59;101345.44;;;-4.01;100.00
36600;BME280;35385;55.668;37.508;2023-02-07T05:16:03;101355.06;;;-3.94;100.00
36600;BME280;35385;55.668;37.508;2023-02-07T05:17:04;101351.56;;;-3.98;100.00
36600;BME280;35385;55.668;37.508;2023-02-07T05:18:04;101330.63;;;-4.13;100.00
36600;BME280;35385;55.668;37.508;2023-02-07T05:19:07;101332.31;;;-4.33;100.00
36600;BME280;35385;55.668;37.508;2023-02-07T05:20:08;101352.25;;;-4.41;100.00
36600;BME280;35385;55.668;37.508;2023-02-07T05:21:09;101358.41;;;-4.33;100.00
36600;BME280;35385;55.668;37.508;2023-02-07T05:22:10;101353.09;;;-4.45;100.00
36600;BME280;35385;55.668;37.508;2023-02-07T05:23:11;101325.06;;;-4.83;100.00
36600;BME280;35385;55.668;37.508;2023-02-07T05:24:12;101313.63;;;-5.03;100.00
36600;BME280;35385;55.668;37.508;2023-02-07T05:25:12;101319.69;;;-5.10;100.00
36600;BME280;35385;55.668;37.508;2023-02-07T05:26:13;101347.69;;;-4.79;100.00
36600;BME280;35385;55.668;37.508;2023-02-07T05:27:16;101366.97;;;-4.54;100.00
36600;BME280;35385;55.668;37.508;2023-02-07T05:28:17;101314.66;;;-4.81;100.00
36600;BME280;35385;55.668;37.508;2023-02-07T05:29:17;101319.78;;;-4.95;100.00
36600;BME280;35385;55.668;37.508;2023-02-07T05:30:18;101367.69;;;-4.75;100.00
36600;BME280;35385;55.668;37.508;2023-02-07T05:31:20;101382.41;;;-4.84;100.00
36600;BME280;35385;55.668;37.508;2023-02-07T05:32:40;101385.97;;;-4.73;100.00
36600;BME280;35385;55.668;37.508;2023-02-07T05:33:59;101379.81;;;-4.83;100.00
36600;BME280;35385;55.668;37.508;2023-02-07T05:35:00;101381.59;;;-4.76;100.00
36600;BME280;35385;55.668;37.508;2023-02-07T05:36:00;101361.56;;;-4.83;100.00
36600;BME280;35385;55.668;37.508;2023-02-07T05:37:02;101378.22;;;-4.66;100.00
36600;BME280;35385;55.668;37.508;2023-02-07T05:38:06;101383.44;;;-4.63;100.00
36600;BME280;35385;55.668;37.508;2023-02-07T05:39:07;101380.81;;;-4.66;100.00
36600;BME280;35385;55.668;37.508;2023-02-07T05:40:07;101380.84;;;-4.64;100.00
36600;BME280;35385;55.668;37.508;2023-02-07T05:41:08;101376.44;;;-4.68;100.00
36600;BME280;35385;55.668;37.508;2023-02-07T05:42:09;101382.63;;;-4.55;100.00
36600;BME280;35385;55.668;37.508;2023-02-07T05:43:10;101387.81;;;-4.55;100.00
36600;BME280;35385;55.668;37.508;2023-02-07T05:44:11;101391.34;;;-4.46;100.00
36600;BME280;35385;55.668;37.508;2023-02-07T05:45:11;101383.44;;;-4.66;100.00
36600;BME280;35385;55.668;37.508;2023-02-07T05:46:12;101387.75;;;-4.68;100.00
36600;BME280;35385;55.668;37.508;2023-02-07T05:47:12;101392.03;;;-4.76;100.00
36600;BME280;35385;55.668;37.508;2023-02-07T05:48:13;101293.31;;;-5.47;100.00
36600;BME280;35385;55.668;37.508;2023-02-07T05:49:14;101398.00;;;-4.89;100.00
36600;BME280;35385;55.668;37.508;2023-02-07T05:50:15;101392.81;;;-4.89;100.00
36600;BME280;35385;55.668;37.508;2023-02-07T05:51:15;101393.66;;;-4.94;100.00
36600;BME280;35385;55.668;37.508;2023-02-07T05:52:16;101387.44;;;-5.10;100.00
36600;BME280;35385;55.668;37.508;2023-02-07T05:53:16;101404.03;;;-4.99;100.00
36600;BME280;35385;55.668;37.508;2023-02-07T05:54:17;101343.16;;;-5.09;100.00
36600;BME280;35385;55.668;37.508;2023-02-07T05:55:18;101399.94;;;-4.67;100.00
36600;BME280;35385;55.668;37.508;2023-02-07T05:56:18;101397.38;;;-4.56;100.00
36600;BME280;35385;55.668;37.508;2023-02-07T05:57:19;101381.75;;;-4.53;100.00
36600;BME280;35385;55.668;37.508;2023-02-07T05:58:19;101403.53;;;-4.46;100.00
36600;BME280;35385;55.668;37.508;2023-02-07T05:59:20;101406.91;;;-4.59;100.00
36600;BME280;35385;55.668;37.508;2023-02-07T06:00:21;101358.81;;;-5.03;100.00